Airfield :







YOU CAN JOIN US ON...

 
LOGIN :

Register | Disclaimer

   EN    FR    IT 

 









Legend :    VFR   Marginal VFR   IFR   Intensive IFR   Very Intensive IFR
Visi :
Ceiling :
>= 8 km
>= 3000ft
5 to 8 km
1000 to 3000 ft
1500m to 5 km
500 to 1000 ft
800 to 1500m
200 to 500 ft
< 800m
< 200 ft
Symbols :   Thunderstorms  Fog  Heavy snow  Heavy precipitations  Wind > 20 kt







- Airport Elevation : 215 ft
- IATA code : MSS


KMSS - Massena International Richards Field

CURRENT METAR :
  • 261553Z AUTO 29007KT 10SM CLR M03/M14 A3042 RMK AO2 SLP307 T10331144

EXPIRED METARs :
  • 261453Z AUTO 24005KT 10SM CLR M04/M16 A3043 RMK AO2 SLP310 T10441156 51019
  • 261353Z AUTO 31008KT 10SM CLR M04/M16 A3042 RMK AO2 SLP309 T10441156

TAF KMSS
Valid from the 26 at 12:00 until the 27 at 12:00 UTC


261120Z 2612/2712 33004KT P6SM SKC
FM261400 27009KT P6SM SKC
FM261900 27009G17KT P6SM SKC
FM270200 24005KT P6SM SKC
KZBW FIR / North America



MET'MAP, your aeronautical weather chart ! - Copyright ORBIFLY December 2007 - Disclaimer

ORBIFLY MET'MAP TEAM :

Programming & Development : Alexandra Zaïnal
Concept & Development : Baudouin d'Aumeries
Co-Development & Prog : Marc-Olivier Méhu
Technical & hardware support : Manuel Goepfert

Contact : metmap@orbifly.com




SOURCES & CREDITS :

   NOAA